Terminal Aerodrome Forecast
Issued by NWS

Home | Current Version | Previous Version | Text Only | Print | Product List | Glossary On
Versions: 1 2 3 4 5 6 7 8 9 10 11 12 13 14 15 16
000
FTUS43 KUNR 241100
TAFGCC
TAF
KGCC 241120Z 2412/2512 29011KT P6SM OVC016
     FM241500 28015KT P6SM OVC050
     FM250100 33007KT P6SM OVC050
     FM250900 VRB03KT 4SM BR OVC011=

USA.gov is the U.S. government's official web portal to all federal, state and local government web resources and services.